createdAt,value
2023-04-27T00:00:22.697Z,4.26
2023-04-27T00:01:24.804Z,4.25
2023-04-27T00:02:29.688Z,4.26
2023-04-27T00:03:32.211Z,4.25
2023-04-27T00:04:37.883Z,4.23
2023-04-27T00:05:40.358Z,4.21
2023-04-27T00:06:45.240Z,4.20
2023-04-27T00:07:47.297Z,4.17
2023-04-27T00:08:51.977Z,4.16
2023-04-27T00:09:54.075Z,4.13
2023-04-27T00:10:59.607Z,4.12
2023-04-27T00:12:04.962Z,4.10
2023-04-27T00:13:09.653Z,4.10
2023-04-27T00:14:11.800Z,4.08
2023-04-27T00:15:16.492Z,4.07
2023-04-27T00:16:18.690Z,4.09
2023-04-27T00:17:23.481Z,4.12
2023-04-27T00:18:25.577Z,4.15
2023-04-27T00:19:30.809Z,4.16
2023-04-27T00:20:34.111Z,4.18
2023-04-27T00:21:38.857Z,4.22
2023-04-27T00:22:41.320Z,4.26
2023-04-27T00:23:45.980Z,4.31
2023-04-27T00:24:48.159Z,4.33
2023-04-27T00:25:52.952Z,4.29
2023-04-27T00:26:55.062Z,4.28
2023-04-27T00:28:02.378Z,4.32
2023-04-27T00:29:04.726Z,4.29
2023-04-27T00:30:11.205Z,4.26
2023-04-27T00:31:13.325Z,4.23
2023-04-27T00:32:18.041Z,4.19
2023-04-27T00:33:20.623Z,4.21
2023-04-27T00:34:25.317Z,4.17
2023-04-27T00:35:27.405Z,4.15
2023-04-27T00:36:32.627Z,4.14
2023-04-27T00:37:34.708Z,4.10
2023-04-27T00:38:40.026Z,4.05
2023-04-27T00:39:42.280Z,4.03
2023-04-27T00:40:52.929Z,4.01
2023-04-27T00:41:57.669Z,4.00
2023-04-27T00:43:02.342Z,3.96
2023-04-27T00:44:07.018Z,3.97
2023-04-27T00:45:13.742Z,3.96
2023-04-27T00:46:17.725Z,3.97
2023-04-27T00:47:23.211Z,3.98
2023-04-27T00:48:26.233Z,3.97
2023-04-27T00:49:31.042Z,3.94
2023-04-27T00:50:33.388Z,3.91
2023-04-27T00:51:38.449Z,3.89
2023-04-27T00:52:42.057Z,3.87
2023-04-27T00:53:47.003Z,3.85
2023-04-27T00:54:51.790Z,3.83
2023-04-27T00:55:58.042Z,3.83
2023-04-27T00:57:00.237Z,3.81
2023-04-27T00:58:12.858Z,3.80
2023-04-27T00:59:15.135Z,3.76
2023-04-27T01:00:20.304Z,3.73
2023-04-27T01:01:22.509Z,3.69
2023-04-27T01:02:28.005Z,3.66
2023-04-27T01:03:31.041Z,3.61
2023-04-27T01:04:37.082Z,3.58
2023-04-27T01:05:39.878Z,3.55
2023-04-27T01:06:51.994Z,3.53
2023-04-27T01:07:54.182Z,3.51
2023-04-27T01:08:58.872Z,3.56
2023-04-27T01:10:02.538Z,3.57
2023-04-27T01:11:07.647Z,3.57
2023-04-27T01:12:09.828Z,3.56
2023-04-27T01:13:17.124Z,3.56
2023-04-27T01:14:19.298Z,3.57
2023-04-27T01:15:24.312Z,3.54
2023-04-27T01:16:26.680Z,3.50
2023-04-27T01:17:31.395Z,3.47
2023-04-27T01:18:33.900Z,3.49
2023-04-27T01:19:40.538Z,3.45
2023-04-27T01:20:43.419Z,3.46
2023-04-27T01:21:48.081Z,3.49
2023-04-27T01:22:50.211Z,3.48
2023-04-27T01:23:57.804Z,3.47
2023-04-27T01:24:59.890Z,3.45
2023-04-27T01:26:06.923Z,3.45
2023-04-27T01:27:09.281Z,3.42
2023-04-27T01:28:13.916Z,3.44
2023-04-27T01:29:15.999Z,3.43
2023-04-27T01:30:21.001Z,3.43
2023-04-27T01:31:23.165Z,3.41
2023-04-27T01:32:28.037Z,3.41
2023-04-27T01:33:30.234Z,3.44
2023-04-27T01:34:35.032Z,3.44
2023-04-27T01:35:37.314Z,3.43
2023-04-27T01:36:41.949Z,3.45
2023-04-27T01:37:44.102Z,3.44
2023-04-27T01:38:48.898Z,3.44
2023-04-27T01:39:53.632Z,3.43
2023-04-27T01:42:17.887Z,3.38
2023-04-27T01:43:22.510Z,3.41
2023-04-27T01:44:25.162Z,3.40
2023-04-27T01:45:29.796Z,3.42
2023-04-27T01:46:31.912Z,3.45
2023-04-27T01:47:36.676Z,3.45
2023-04-27T01:48:40.329Z,3.45
2023-04-27T01:49:46.114Z,3.47
2023-04-27T01:50:48.258Z,3.46
2023-04-27T01:51:52.939Z,3.46
2023-04-27T01:52:55.440Z,3.46
2023-04-27T01:54:03.495Z,3.44
2023-04-27T01:55:09.317Z,3.44
2023-04-27T01:56:14.045Z,3.45
2023-04-27T01:57:16.662Z,3.42
2023-04-27T01:58:21.372Z,3.39
2023-04-27T01:59:23.456Z,3.36
2023-04-27T02:00:28.404Z,3.34
2023-04-27T02:01:31.624Z,3.36
2023-04-27T02:02:36.522Z,3.40
2023-04-27T02:03:38.956Z,3.39
2023-04-27T02:04:45.364Z,3.38
2023-04-27T02:05:48.215Z,3.35
2023-04-27T02:06:52.904Z,3.30
2023-04-27T02:07:55.016Z,3.35
2023-04-27T02:08:59.848Z,3.38
2023-04-27T02:10:01.931Z,3.39
2023-04-27T02:11:09.490Z,3.39
2023-04-27T02:12:11.969Z,3.39
2023-04-27T02:13:16.940Z,3.39
2023-04-27T02:14:19.009Z,3.44
2023-04-27T02:15:23.734Z,3.40
2023-04-27T02:16:26.157Z,3.41
2023-04-27T02:17:31.973Z,3.40
2023-04-27T02:18:35.325Z,3.40
2023-04-27T02:19:40.058Z,3.41
2023-04-27T02:20:42.579Z,3.38
2023-04-27T02:21:47.244Z,3.38
2023-04-27T02:22:49.549Z,3.34
2023-04-27T02:23:54.318Z,3.34
2023-04-27T02:24:56.505Z,3.34
2023-04-27T02:26:07.209Z,3.33
2023-04-27T02:27:11.896Z,3.34
2023-04-27T02:28:17.290Z,3.34
2023-04-27T02:29:19.931Z,3.30
2023-04-27T02:30:25.070Z,3.26
2023-04-27T02:31:30.128Z,3.24
2023-04-27T02:32:32.304Z,3.23
2023-04-27T02:33:36.975Z,3.22
2023-04-27T02:34:39.053Z,3.19
2023-04-27T02:35:43.719Z,3.21
2023-04-27T02:36:45.942Z,3.18
2023-04-27T02:37:50.590Z,3.17
2023-04-27T02:38:52.689Z,3.20
2023-04-27T02:39:58.322Z,3.25
2023-04-27T02:41:01.056Z,3.22
2023-04-27T02:42:05.854Z,3.22
2023-04-27T02:43:10.843Z,3.24
2023-04-27T02:44:15.755Z,3.24
2023-04-27T02:45:18.200Z,3.25
2023-04-27T02:46:23.718Z,3.24
2023-04-27T02:47:29.201Z,3.27
2023-04-27T02:48:34.283Z,3.24
2023-04-27T02:49:38.049Z,3.22
2023-04-27T02:50:44.658Z,3.21
2023-04-27T02:51:46.726Z,3.23
2023-04-27T02:52:51.344Z,3.24
2023-04-27T02:53:53.711Z,3.25
2023-04-27T02:55:01.601Z,3.23
2023-04-27T02:58:01.784Z,3.23
2023-04-27T02:59:06.898Z,3.26
2023-04-27T03:00:13.685Z,3.27
2023-04-27T03:01:17.501Z,3.26
2023-04-27T03:02:22.432Z,3.25
2023-04-27T03:03:24.927Z,3.26
2023-04-27T03:04:30.163Z,3.26
2023-04-27T03:05:32.481Z,3.25
2023-04-27T03:06:37.252Z,3.25
2023-04-27T03:07:39.355Z,3.26
2023-04-27T03:08:44.359Z,3.27
2023-04-27T03:09:46.582Z,3.27
2023-04-27T03:10:51.215Z,3.27
2023-04-27T03:11:53.482Z,3.26
2023-04-27T03:12:58.233Z,3.25
2023-04-27T03:14:00.293Z,3.27
2023-04-27T03:15:08.178Z,3.29
2023-04-27T03:16:11.676Z,3.28
2023-04-27T03:19:08.809Z,3.22
2023-04-27T03:20:15.461Z,3.21
2023-04-27T03:21:17.540Z,3.18
2023-04-27T03:22:22.280Z,3.18
2023-04-27T03:23:24.517Z,3.18
2023-04-27T03:24:29.668Z,3.19
2023-04-27T03:25:31.740Z,3.19
2023-04-27T03:26:36.420Z,3.22
2023-04-27T03:27:38.546Z,3.24
2023-04-27T03:28:43.680Z,3.24
2023-04-27T03:29:46.024Z,3.29
2023-04-27T03:30:53.331Z,3.29
2023-04-27T03:31:57.737Z,3.30
2023-04-27T03:33:02.572Z,3.30
2023-04-27T03:34:04.661Z,3.35
2023-04-27T03:35:16.009Z,3.34
2023-04-27T03:36:29.892Z,3.33
2023-04-27T03:37:32.942Z,3.33
2023-04-27T03:38:37.735Z,3.34
2023-04-27T03:39:40.156Z,3.32
2023-04-27T03:40:44.978Z,3.34
2023-04-27T03:41:47.137Z,3.35
2023-04-27T03:42:51.811Z,3.35
2023-04-27T03:43:53.894Z,3.38
2023-04-27T03:44:58.513Z,3.41
2023-04-27T03:46:03.224Z,3.38
2023-04-27T03:47:09.880Z,3.39
2023-04-27T03:48:12.241Z,3.40
2023-04-27T03:49:16.872Z,3.39
2023-04-27T03:50:43.122Z,3.38
2023-04-27T03:51:47.912Z,3.40
2023-04-27T03:52:50.114Z,3.40
2023-04-27T03:53:54.789Z,3.42
2023-04-27T03:54:56.953Z,3.43
2023-04-27T03:56:01.577Z,3.42
2023-04-27T03:57:04.632Z,3.42
2023-04-27T03:58:10.507Z,3.41
2023-04-27T03:59:15.415Z,3.42
2023-04-27T04:00:18.617Z,3.43
2023-04-27T04:01:25.906Z,3.46
2023-04-27T04:02:28.217Z,3.43
2023-04-27T04:03:33.189Z,3.40
2023-04-27T04:04:35.491Z,3.40
2023-04-27T04:05:40.330Z,3.41
2023-04-27T04:06:42.466Z,3.45
2023-04-27T04:07:47.390Z,3.45
2023-04-27T04:08:49.558Z,3.48
2023-04-27T04:09:54.228Z,3.49
2023-04-27T04:10:59.609Z,3.49
2023-04-27T04:12:02.221Z,3.50
2023-04-27T04:13:07.240Z,3.53
2023-04-27T04:14:09.321Z,3.57
2023-04-27T04:15:14.139Z,3.54
2023-04-27T04:16:16.340Z,3.54
2023-04-27T04:17:23.675Z,3.54
2023-04-27T04:18:25.805Z,3.54
2023-04-27T04:19:30.520Z,3.53
2023-04-27T04:20:34.734Z,3.53
2023-04-27T04:21:39.825Z,3.53
2023-04-27T04:22:41.881Z,3.61
2023-04-27T04:23:46.511Z,3.63
2023-04-27T04:24:48.614Z,3.67
2023-04-27T04:25:53.562Z,3.71
2023-04-27T04:26:56.138Z,3.71
2023-04-27T04:28:01.170Z,3.76
2023-04-27T04:29:04.029Z,3.77
2023-04-27T04:30:10.757Z,3.84
2023-04-27T04:31:13.692Z,3.81
2023-04-27T04:32:20.122Z,3.83
2023-04-27T04:33:27.388Z,3.81
2023-04-27T04:34:29.554Z,3.80
2023-04-27T04:35:34.816Z,3.84
2023-04-27T04:36:36.961Z,3.80
2023-04-27T04:37:41.705Z,3.83
2023-04-27T04:38:46.384Z,3.83
2023-04-27T04:39:48.455Z,3.89
2023-04-27T04:40:53.262Z,3.91
2023-04-27T04:41:55.291Z,3.96
2023-04-27T04:43:00.011Z,3.97
2023-04-27T04:44:02.092Z,3.95
2023-04-27T04:45:08.017Z,3.97
2023-04-27T04:46:40.039Z,3.97
2023-04-27T04:47:42.235Z,4.01
2023-04-27T04:48:49.484Z,4.04
2023-04-27T04:49:54.159Z,4.05
2023-04-27T04:50:57.389Z,4.06
2023-04-27T04:52:02.061Z,4.09
2023-04-27T04:53:04.185Z,4.16
2023-04-27T04:54:08.868Z,4.19
2023-04-27T04:55:12.069Z,4.21
2023-04-27T04:56:17.601Z,4.23
2023-04-27T04:57:37.521Z,4.23
2023-04-27T04:58:39.964Z,4.28
2023-04-27T04:59:44.671Z,4.31
2023-04-27T05:00:46.724Z,4.32
2023-04-27T05:01:51.411Z,4.31
2023-04-27T05:02:53.753Z,4.32
2023-04-27T05:04:01.441Z,4.35
2023-04-27T05:05:04.335Z,4.39
2023-04-27T05:06:09.789Z,4.42
2023-04-27T05:07:14.699Z,4.46
2023-04-27T05:08:20.046Z,4.52
2023-04-27T05:10:03.701Z,4.57
2023-04-27T05:11:05.940Z,4.64
2023-04-27T05:12:11.072Z,4.69
2023-04-27T05:13:13.189Z,4.74
2023-04-27T05:14:18.359Z,4.78
2023-04-27T05:15:21.108Z,4.83
2023-04-27T05:16:26.676Z,4.88
2023-04-27T05:17:28.864Z,4.92
2023-04-27T05:18:33.572Z,4.98
2023-04-27T05:19:38.344Z,5.02
2023-04-27T05:20:43.127Z,5.07
2023-04-27T05:21:45.625Z,5.14
2023-04-27T05:22:50.502Z,5.18
2023-04-27T05:23:55.235Z,5.22
2023-04-27T05:24:57.725Z,5.26
2023-04-27T05:27:18.233Z,5.36
2023-04-27T05:28:20.990Z,5.40
2023-04-27T05:29:26.036Z,5.46
2023-04-27T05:30:28.236Z,5.51
2023-04-27T05:31:32.917Z,5.60
2023-04-27T05:32:37.024Z,5.67
2023-04-27T05:33:41.806Z,5.72
2023-04-27T05:34:49.306Z,5.80
2023-04-27T05:35:54.248Z,5.84
2023-04-27T05:36:56.310Z,5.90
2023-04-27T05:38:01.094Z,5.95
2023-04-27T05:39:03.674Z,6.02
2023-04-27T05:40:10.484Z,6.09
2023-04-27T05:41:15.176Z,6.16
2023-04-27T05:42:17.286Z,6.24
2023-04-27T05:43:22.018Z,6.29
2023-04-27T05:44:30.010Z,6.37
2023-04-27T05:45:34.672Z,6.43
2023-04-27T05:46:38.764Z,6.49
2023-04-27T05:47:43.733Z,6.55
2023-04-27T05:48:46.062Z,6.59
2023-04-27T05:49:56.452Z,6.65
2023-04-27T05:51:01.984Z,6.71
2023-04-27T05:52:07.059Z,6.75
2023-04-27T05:54:50.070Z,6.91
2023-04-27T05:57:57.296Z,7.07
2023-04-27T05:59:06.841Z,7.12
2023-04-27T06:00:13.448Z,7.17
2023-04-27T06:01:15.527Z,7.22
2023-04-27T06:02:20.696Z,7.24
2023-04-27T06:03:23.553Z,7.31
2023-04-27T06:04:29.210Z,7.33
2023-04-27T06:05:34.607Z,7.36
2023-04-27T06:06:39.603Z,7.44
2023-04-27T06:07:43.954Z,7.48
2023-04-27T06:08:48.589Z,7.54
2023-04-27T06:11:47.668Z,7.68
2023-04-27T06:12:52.417Z,7.75
2023-04-27T06:13:54.568Z,7.81
2023-04-27T06:14:59.198Z,7.83
2023-04-27T06:16:01.758Z,7.91
2023-04-27T06:17:07.171Z,7.98
2023-04-27T06:18:09.294Z,8.05
2023-04-27T06:19:14.455Z,8.12
2023-04-27T06:20:16.777Z,8.20
2023-04-27T06:21:24.046Z,8.29
2023-04-27T06:22:26.406Z,8.38
2023-04-27T06:23:31.758Z,8.47
2023-04-27T06:24:36.537Z,8.59
2023-04-27T06:25:41.765Z,8.70
2023-04-27T06:26:43.829Z,8.81
2023-04-27T06:27:48.530Z,8.91
2023-04-27T06:28:53.231Z,9.03
2023-04-27T06:31:13.742Z,9.23
2023-04-27T06:32:15.854Z,9.21
2023-04-27T06:33:20.639Z,9.25
2023-04-27T06:34:22.763Z,9.34
2023-04-27T06:35:27.397Z,9.35
2023-04-27T06:36:32.102Z,9.50
2023-04-27T06:37:36.744Z,9.62
2023-04-27T06:38:38.886Z,9.71
2023-04-27T06:39:43.531Z,9.82
2023-04-27T06:40:45.980Z,9.95
2023-04-27T06:41:50.573Z,10.05
2023-04-27T06:42:52.816Z,10.15
2023-04-27T06:43:59.042Z,10.26
2023-04-27T06:45:01.548Z,10.41
2023-04-27T06:46:06.506Z,10.53
2023-04-27T06:47:08.652Z,10.66
2023-04-27T06:48:13.589Z,10.77
2023-04-27T06:49:15.883Z,10.85
2023-04-27T06:50:20.928Z,10.97
2023-04-27T06:51:25.551Z,11.09
2023-04-27T06:52:32.231Z,11.13
2023-04-27T06:53:37.080Z,11.22
2023-04-27T06:54:39.088Z,11.29
2023-04-27T06:55:45.580Z,11.32
2023-04-27T06:56:48.998Z,11.39
2023-04-27T06:57:53.704Z,11.36
2023-04-27T06:58:55.756Z,11.18
2023-04-27T07:00:00.520Z,10.82
2023-04-27T07:01:06.109Z,10.82
2023-04-27T07:02:08.375Z,10.86
2023-04-27T07:03:13.393Z,11.05
2023-04-27T07:04:18.345Z,11.24
2023-04-27T07:05:23.366Z,11.36
2023-04-27T07:06:26.210Z,11.50
2023-04-27T07:07:33.419Z,11.45
2023-04-27T07:08:38.062Z,11.45
2023-04-27T07:09:40.087Z,11.56
2023-04-27T07:10:44.746Z,11.69
2023-04-27T07:11:46.906Z,11.82
2023-04-27T07:12:51.811Z,11.91
2023-04-27T07:13:53.989Z,11.91
2023-04-27T07:14:58.630Z,12.07
2023-04-27T07:16:03.474Z,12.19
2023-04-27T07:17:05.582Z,12.32
2023-04-27T07:18:12.388Z,12.45
2023-04-27T07:19:14.676Z,12.50
2023-04-27T07:20:19.545Z,12.41
2023-04-27T07:21:24.516Z,12.50
2023-04-27T07:22:26.906Z,12.33
2023-04-27T07:23:34.650Z,12.56
2023-04-27T07:24:36.881Z,12.61
2023-04-27T07:25:42.159Z,12.74
2023-04-27T07:26:44.836Z,12.87
2023-04-27T07:27:49.730Z,12.99
2023-04-27T07:28:51.846Z,13.02
2023-04-27T07:29:56.892Z,13.07
2023-04-27T07:31:01.619Z,12.79
2023-04-27T07:32:06.355Z,12.95
2023-04-27T07:33:11.625Z,12.71
2023-04-27T07:34:13.814Z,12.66
2023-04-27T07:35:18.545Z,12.65
2023-04-27T07:36:20.712Z,12.05
2023-04-27T07:37:26.938Z,12.15
2023-04-27T07:38:34.400Z,12.40
2023-04-27T07:39:36.977Z,12.12
2023-04-27T07:40:43.844Z,11.90
2023-04-27T07:41:46.836Z,12.10
2023-04-27T07:42:51.482Z,11.99
2023-04-27T07:43:58.271Z,11.93
2023-04-27T07:45:00.341Z,11.93
2023-04-27T07:46:05.877Z,11.75
2023-04-27T07:47:08.205Z,11.66
2023-04-27T07:48:12.948Z,11.78
2023-04-27T07:49:15.774Z,12.02
2023-04-27T07:50:24.584Z,12.32
2023-04-27T07:51:28.875Z,12.40
2023-04-27T07:52:33.631Z,12.52
2023-04-27T07:53:40.993Z,12.68
2023-04-27T07:54:43.468Z,12.95
2023-04-27T07:55:48.061Z,12.65
2023-04-27T07:56:50.137Z,12.60
2023-04-27T07:57:55.323Z,12.57
2023-04-27T07:58:59.994Z,12.48
2023-04-27T08:00:08.152Z,12.74
2023-04-27T08:01:12.976Z,12.68
2023-04-27T08:03:23.081Z,13.29
2023-04-27T08:04:25.622Z,13.52
2023-04-27T08:05:30.714Z,13.69
2023-04-27T08:06:36.951Z,13.23
2023-04-27T08:07:44.836Z,13.26
2023-04-27T08:08:49.915Z,13.41
2023-04-27T08:09:54.933Z,13.14
2023-04-27T08:10:59.761Z,12.87
2023-04-27T08:12:03.157Z,13.10
2023-04-27T08:13:10.073Z,12.73
2023-04-27T08:14:15.984Z,12.63
2023-04-27T08:15:18.397Z,13.06
2023-04-27T08:16:23.153Z,13.41
2023-04-27T08:17:25.774Z,13.55
2023-04-27T08:19:52.092Z,13.04
2023-04-27T08:20:54.217Z,12.94
2023-04-27T08:21:59.408Z,12.90
2023-04-27T08:23:04.241Z,13.32
2023-04-27T08:24:09.205Z,13.58
2023-04-27T08:25:13.858Z,13.69
2023-04-27T08:26:16.436Z,13.81
2023-04-27T08:27:21.311Z,14.03
2023-04-27T08:28:25.954Z,14.15
2023-04-27T08:29:29.256Z,14.35
2023-04-27T08:30:34.517Z,14.52
2023-04-27T08:31:39.332Z,14.60
2023-04-27T08:32:41.499Z,14.41
2023-04-27T08:33:47.429Z,14.56
2023-04-27T08:34:52.085Z,14.68
2023-04-27T08:35:54.707Z,14.77
2023-04-27T08:37:00.797Z,14.84
2023-04-27T08:38:03.157Z,14.53
2023-04-27T08:39:09.301Z,13.69
2023-04-27T08:40:17.254Z,13.76
2023-04-27T08:41:22.409Z,13.54
2023-04-27T08:42:27.277Z,13.14
2023-04-27T08:43:36.495Z,13.39
2023-04-27T08:44:40.215Z,13.53
2023-04-27T08:45:51.287Z,13.66
2023-04-27T08:46:53.568Z,13.64
2023-04-27T08:47:58.584Z,13.60
2023-04-27T08:49:00.764Z,13.69
2023-04-27T08:51:58.277Z,13.43
2023-04-27T08:53:03.154Z,13.55
2023-04-27T08:54:05.321Z,13.78
2023-04-27T08:55:11.202Z,13.72
2023-04-27T08:56:18.436Z,13.83
2023-04-27T08:57:20.657Z,13.96
2023-04-27T09:00:27.527Z,14.40
2023-04-27T09:01:29.635Z,14.63
2023-04-27T09:02:34.468Z,14.62
2023-04-27T09:03:40.114Z,14.80
2023-04-27T09:04:42.602Z,14.96
2023-04-27T09:06:03.398Z,15.22
2023-04-27T09:07:18.730Z,14.69
2023-04-27T09:08:20.817Z,14.98
2023-04-27T09:09:48.551Z,14.77
2023-04-27T09:10:51.546Z,14.80
2023-04-27T09:11:58.969Z,15.36
2023-04-27T09:13:01.590Z,15.62
2023-04-27T09:14:18.172Z,15.43
2023-04-27T09:15:20.266Z,15.24
2023-04-27T09:16:26.862Z,15.40
2023-04-27T09:17:33.979Z,15.73
2023-04-27T09:18:38.141Z,15.47
2023-04-27T09:19:42.896Z,15.65
2023-04-27T09:20:48.183Z,16.12
2023-04-27T09:21:51.886Z,16.18
2023-04-27T09:22:58.784Z,16.48
2023-04-27T09:24:13.357Z,16.04
2023-04-27T09:25:32.097Z,15.49
2023-04-27T09:26:34.252Z,16.05
2023-04-27T09:27:47.986Z,16.22
2023-04-27T09:28:54.341Z,16.47
2023-04-27T09:29:56.377Z,16.57
2023-04-27T09:31:03.071Z,17.03
2023-04-27T09:32:16.969Z,17.61
2023-04-27T09:33:26.187Z,18.05
2023-04-27T09:34:42.130Z,18.49
2023-04-27T09:35:49.476Z,18.86
2023-04-27T09:36:54.342Z,19.06
2023-04-27T09:37:59.381Z,19.18
2023-04-27T09:39:07.389Z,19.05
2023-04-27T09:40:11.288Z,19.53
2023-04-27T09:41:16.698Z,19.86
2023-04-27T09:42:18.953Z,20.21
2023-04-27T09:43:27.685Z,20.34
2023-04-27T09:44:30.813Z,20.57
2023-04-27T09:45:37.426Z,20.75
2023-04-27T09:46:39.843Z,21.05
2023-04-27T09:47:44.946Z,21.40
2023-04-27T09:48:50.638Z,21.56
2023-04-27T09:49:52.968Z,21.52
2023-04-27T09:50:57.637Z,21.31
2023-04-27T09:51:59.853Z,21.36
2023-04-27T09:53:05.919Z,21.36
2023-04-27T09:54:14.091Z,21.55
2023-04-27T09:55:22.250Z,21.75
2023-04-27T09:56:35.581Z,21.85
2023-04-27T09:57:43.635Z,21.01
2023-04-27T09:59:09.043Z,20.39
2023-04-27T10:00:23.702Z,19.45
2023-04-27T10:01:37.722Z,18.64
2023-04-27T10:02:53.377Z,17.93
2023-04-27T10:04:23.185Z,18.00
2023-04-27T10:05:51.361Z,18.41
2023-04-27T10:07:03.866Z,17.77
2023-04-27T10:08:09.912Z,17.63
2023-04-27T10:09:12.956Z,17.32
2023-04-27T10:10:21.233Z,17.99
2023-04-27T10:11:40.983Z,18.86
2023-04-27T10:12:45.738Z,18.74
2023-04-27T10:13:58.912Z,19.13
2023-04-27T10:15:15.557Z,19.11
2023-04-27T10:16:18.006Z,19.35
2023-04-27T10:17:28.027Z,19.90
2023-04-27T10:18:33.786Z,20.33
2023-04-27T10:19:35.908Z,20.53
2023-04-27T10:20:41.925Z,20.88
2023-04-27T10:21:55.323Z,21.22
2023-04-27T10:23:01.043Z,21.49
2023-04-27T10:24:11.445Z,21.80
2023-04-27T10:25:19.971Z,22.04
2023-04-27T10:26:25.406Z,22.26
2023-04-27T10:27:30.077Z,22.26
2023-04-27T10:28:41.696Z,22.41
2023-04-27T10:29:46.828Z,22.30
2023-04-27T10:30:52.210Z,22.24
2023-04-27T10:31:54.422Z,22.06
2023-04-27T10:33:00.697Z,21.96
2023-04-27T10:34:10.112Z,21.95
2023-04-27T10:35:14.802Z,22.06
2023-04-27T10:36:16.925Z,22.03
2023-04-27T10:37:25.675Z,22.11
2023-04-27T10:38:33.323Z,22.21
2023-04-27T10:39:47.938Z,22.33
2023-04-27T10:41:01.733Z,22.54
2023-04-27T10:42:55.040Z,22.62
2023-04-27T10:45:41.152Z,22.04
2023-04-27T10:46:52.661Z,22.28
2023-04-27T10:48:02.338Z,22.40
2023-04-27T10:49:29.033Z,22.49
2023-04-27T10:50:34.567Z,22.92
2023-04-27T10:51:36.794Z,23.19
2023-04-27T10:52:44.061Z,23.19
2023-04-27T10:53:48.804Z,23.09
2023-04-27T10:54:53.485Z,23.28
2023-04-27T10:55:59.079Z,23.15
2023-04-27T10:57:09.018Z,23.43
2023-04-27T10:58:13.719Z,23.44
2023-04-27T10:59:16.037Z,23.58
2023-04-27T11:00:26.970Z,23.65
2023-04-27T11:01:32.309Z,23.36
2023-04-27T11:02:37.416Z,23.51
2023-04-27T11:03:44.870Z,23.37
2023-04-27T11:04:49.700Z,23.22
2023-04-27T11:06:04.525Z,22.89
2023-04-27T11:08:36.940Z,22.48
2023-04-27T11:09:42.899Z,22.50
2023-04-27T11:10:47.385Z,22.12
2023-04-27T11:11:52.062Z,22.33
2023-04-27T11:12:54.873Z,22.33
2023-04-27T11:13:59.657Z,22.29
2023-04-27T11:15:01.822Z,21.97
2023-04-27T11:16:08.051Z,21.60
2023-04-27T11:17:33.700Z,21.12
2023-04-27T11:18:40.884Z,20.04
2023-04-27T11:19:49.792Z,19.99
2023-04-27T11:20:53.242Z,19.99
2023-04-27T11:22:06.606Z,20.12
2023-04-27T11:23:11.246Z,20.20
2023-04-27T11:24:15.880Z,20.53
2023-04-27T11:25:20.748Z,20.83
2023-04-27T11:26:25.294Z,21.44
2023-04-27T11:27:39.859Z,22.05
2023-04-27T11:28:45.184Z,22.67
2023-04-27T11:29:49.985Z,23.14
2023-04-27T11:30:58.496Z,22.93
2023-04-27T11:33:33.616Z,22.03
2023-04-27T11:34:37.336Z,21.28
2023-04-27T11:35:42.834Z,22.11
2023-04-27T11:36:45.088Z,22.76
2023-04-27T11:38:00.154Z,22.54
2023-04-27T11:39:02.513Z,21.96
2023-04-27T11:40:08.681Z,21.47
2023-04-27T11:41:13.780Z,21.38
2023-04-27T11:42:18.531Z,21.39
2023-04-27T11:43:23.435Z,21.44
2023-04-27T11:44:28.771Z,21.42
2023-04-27T11:45:34.171Z,21.02
2023-04-27T11:46:39.380Z,21.48
2023-04-27T11:47:49.696Z,21.95
2023-04-27T11:49:04.462Z,22.16
2023-04-27T11:50:10.792Z,22.28
2023-04-27T11:51:16.028Z,22.03
2023-04-27T11:52:18.151Z,22.29
2023-04-27T11:53:34.005Z,21.93
2023-04-27T11:54:37.914Z,22.59
2023-04-27T11:55:43.398Z,23.20
2023-04-27T11:56:46.475Z,22.56
2023-04-27T11:57:51.728Z,23.08
2023-04-27T11:58:53.848Z,21.61
2023-04-27T12:00:00.605Z,21.86
2023-04-27T12:01:04.421Z,22.30
2023-04-27T12:02:10.249Z,23.03
2023-04-27T12:03:15.221Z,23.70
2023-04-27T12:04:22.828Z,23.49
2023-04-27T12:05:27.963Z,23.64
2023-04-27T12:06:33.858Z,24.16
2023-04-27T12:07:36.516Z,25.03
2023-04-27T12:08:41.220Z,25.58
2023-04-27T12:09:43.991Z,25.15
2023-04-27T12:10:49.135Z,25.70
2023-04-27T12:11:51.226Z,23.37
2023-04-27T12:12:56.188Z,23.07
2023-04-27T12:14:01.305Z,24.28
2023-04-27T12:15:03.740Z,24.10
2023-04-27T12:16:09.135Z,23.16
2023-04-27T12:17:13.909Z,23.61
2023-04-27T12:18:16.247Z,23.44
2023-04-27T12:19:24.518Z,23.73
2023-04-27T12:20:27.062Z,23.71
2023-04-27T12:21:32.405Z,22.46
2023-04-27T12:22:34.757Z,23.15
2023-04-27T12:23:39.896Z,23.67
2023-04-27T12:24:42.005Z,22.66
2023-04-27T12:25:46.968Z,22.50
2023-04-27T12:26:51.903Z,23.30
2023-04-27T12:27:54.285Z,21.24
2023-04-27T12:28:59.001Z,21.56
2023-04-27T12:30:04.833Z,22.15
2023-04-27T12:31:07.138Z,21.79
2023-04-27T12:32:11.955Z,22.64
2023-04-27T12:33:16.897Z,23.16
2023-04-27T12:34:21.924Z,23.56
2023-04-27T12:35:26.761Z,22.37
2023-04-27T12:36:29.020Z,22.00
2023-04-27T12:37:33.696Z,21.44
2023-04-27T12:38:35.803Z,21.81
2023-04-27T12:39:40.641Z,22.29
2023-04-27T12:40:45.288Z,22.39
2023-04-27T12:41:51.489Z,21.94
2023-04-27T12:42:53.717Z,22.07
2023-04-27T12:43:58.418Z,21.43
2023-04-27T12:45:00.597Z,22.40
2023-04-27T12:46:05.329Z,22.76
2023-04-27T12:47:12.295Z,23.44
2023-04-27T12:48:20.190Z,23.97
2023-04-27T12:49:27.647Z,25.30
2023-04-27T12:50:30.752Z,26.11
2023-04-27T12:51:36.079Z,27.25
2023-04-27T12:52:38.400Z,28.17
2023-04-27T12:53:43.114Z,28.56
2023-04-27T12:54:47.867Z,27.65
2023-04-27T12:55:53.673Z,25.65
2023-04-27T12:56:58.619Z,25.45
2023-04-27T12:58:01.099Z,25.15
2023-04-27T12:59:06.163Z,25.60
2023-04-27T13:00:13.610Z,26.03
2023-04-27T13:01:19.407Z,25.50
2023-04-27T13:02:21.822Z,25.15
2023-04-27T13:03:27.026Z,24.84
2023-04-27T13:04:35.241Z,23.37
2023-04-27T13:05:37.737Z,23.65
2023-04-27T13:06:43.754Z,23.85
2023-04-27T13:07:45.862Z,23.94
2023-04-27T13:08:51.200Z,24.28
2023-04-27T13:09:53.431Z,24.38
2023-04-27T13:10:58.213Z,24.20
2023-04-27T13:12:01.585Z,24.70
2023-04-27T13:13:07.223Z,24.65
2023-04-27T13:14:13.445Z,24.74
2023-04-27T13:15:16.235Z,24.40
2023-04-27T13:18:02.027Z,23.56
2023-04-27T13:19:04.218Z,23.64
2023-04-27T13:20:13.028Z,23.63
2023-04-27T13:21:15.564Z,24.23
2023-04-27T13:22:21.112Z,24.69
2023-04-27T13:23:23.260Z,25.07
2023-04-27T13:24:29.544Z,25.48
2023-04-27T13:25:31.654Z,25.21
2023-04-27T13:26:36.611Z,25.78
2023-04-27T13:27:38.709Z,26.37
2023-04-27T13:28:43.605Z,26.18
2023-04-27T13:29:45.770Z,25.94
2023-04-27T13:30:50.868Z,26.25
2023-04-27T13:31:56.120Z,26.71
2023-04-27T13:33:14.239Z,27.05
2023-04-27T13:34:23.796Z,26.82
2023-04-27T13:35:31.054Z,24.56
2023-04-27T13:36:33.178Z,24.95
2023-04-27T13:37:37.829Z,25.17
2023-04-27T13:38:42.855Z,25.11
2023-04-27T13:39:45.009Z,25.68
2023-04-27T13:40:52.843Z,25.99
2023-04-27T13:41:55.053Z,25.73
2023-04-27T13:42:59.799Z,26.45
2023-04-27T13:44:04.487Z,25.33
2023-04-27T13:45:07.762Z,25.57
2023-04-27T13:46:13.821Z,27.00
2023-04-27T13:47:18.600Z,27.64
2023-04-27T13:48:20.986Z,27.55
2023-04-27T13:49:26.060Z,26.77
2023-04-27T13:50:33.379Z,27.97
2023-04-27T13:51:38.301Z,28.69
2023-04-27T13:52:41.455Z,28.91
2023-04-27T13:53:46.503Z,29.28
2023-04-27T13:54:51.346Z,29.44
2023-04-27T13:55:53.781Z,26.03
2023-04-27T13:56:58.527Z,26.85
2023-04-27T13:58:00.652Z,27.65
2023-04-27T13:59:05.481Z,28.10
2023-04-27T14:00:11.598Z,28.03
2023-04-27T14:01:17.349Z,28.01
2023-04-27T14:02:22.327Z,28.76
2023-04-27T14:03:27.412Z,28.69
2023-04-27T14:04:32.302Z,29.04
2023-04-27T14:05:39.630Z,29.70
2023-04-27T14:06:44.400Z,30.35
2023-04-27T14:07:49.157Z,31.02
2023-04-27T14:08:55.656Z,31.38
2023-04-27T14:10:01.410Z,30.87
2023-04-27T14:11:06.314Z,31.15
2023-04-27T14:12:11.301Z,30.42
2023-04-27T14:13:13.758Z,30.20
2023-04-27T14:14:18.545Z,30.08
2023-04-27T14:15:20.853Z,30.07
2023-04-27T14:16:26.708Z,28.65
2023-04-27T14:17:31.412Z,26.98
2023-04-27T14:18:33.717Z,26.38
2023-04-27T14:21:03.774Z,25.48
2023-04-27T14:22:06.585Z,24.70
2023-04-27T14:23:12.099Z,24.17
2023-04-27T14:24:14.363Z,23.50
2023-04-27T14:25:19.288Z,22.49
2023-04-27T14:26:21.365Z,20.72
2023-04-27T14:27:26.252Z,21.56
2023-04-27T14:28:31.017Z,21.90
2023-04-27T14:29:33.147Z,22.42
2023-04-27T14:30:38.084Z,22.36
2023-04-27T14:31:41.235Z,21.73
2023-04-27T14:32:46.046Z,21.83
2023-04-27T14:33:48.214Z,21.19
2023-04-27T14:34:53.065Z,21.29
2023-04-27T14:35:56.352Z,22.03
2023-04-27T14:37:03.904Z,22.79
2023-04-27T14:38:08.811Z,23.49
2023-04-27T14:39:10.989Z,22.86
2023-04-27T14:40:16.536Z,23.97